createdAt,value
2023-03-26T00:01:58.520Z,10.17
2023-03-26T00:05:01.100Z,10.19
2023-03-26T00:08:03.945Z,10.20
2023-03-26T00:11:08.707Z,10.10
2023-03-26T00:14:14.078Z,10.02
2023-03-26T00:17:16.827Z,10.07
2023-03-26T00:20:19.392Z,10.17
2023-03-26T00:23:22.218Z,10.15
2023-03-26T00:26:24.670Z,10.12
2023-03-26T00:29:28.145Z,10.03
2023-03-26T00:32:31.489Z,10.04
2023-03-26T00:35:38.416Z,10.02
2023-03-26T00:38:43.014Z,9.95
2023-03-26T00:41:45.860Z,9.91
2023-03-26T00:44:51.185Z,9.90
2023-03-26T00:47:53.750Z,9.96
2023-03-26T00:50:57.593Z,9.99
2023-03-26T00:54:00.785Z,9.87
2023-03-26T00:57:06.964Z,9.78
2023-03-26T01:00:15.388Z,9.78
2023-03-26T01:03:27.784Z,9.89
2023-03-26T01:06:36.011Z,9.89
2023-03-26T01:09:50.474Z,9.92
2023-03-26T01:12:53.103Z,9.83
2023-03-26T01:15:57.914Z,9.87
2023-03-26T01:19:00.917Z,9.92
2023-03-26T01:22:05.184Z,9.95
2023-03-26T01:25:09.649Z,9.89
2023-03-26T01:28:12.890Z,10.03
2023-03-26T01:31:38.744Z,9.90
2023-03-26T01:35:00.114Z,9.90
2023-03-26T01:38:10.912Z,9.91
2023-03-26T01:41:17.724Z,9.97
2023-03-26T01:44:59.604Z,9.89
2023-03-26T01:48:02.451Z,9.95
2023-03-26T01:51:06.571Z,9.95
2023-03-26T01:54:31.544Z,10.14
2023-03-26T01:57:43.196Z,10.17
2023-03-26T02:01:24.677Z,10.25
2023-03-26T02:04:43.282Z,10.10
2023-03-26T02:08:12.271Z,10.06
2023-03-26T02:11:16.661Z,10.08
2023-03-26T02:14:19.441Z,9.97
2023-03-26T02:17:24.524Z,10.06
2023-03-26T02:20:30.407Z,10.06
2023-03-26T02:23:35.955Z,10.12
2023-03-26T02:26:38.985Z,10.02
2023-03-26T02:29:47.797Z,10.09
2023-03-26T02:32:52.331Z,9.97
2023-03-26T02:36:02.699Z,9.84
2023-03-26T02:39:05.513Z,9.71
2023-03-26T02:42:12.703Z,9.78
2023-03-26T02:45:22.214Z,9.80
2023-03-26T02:48:44.055Z,9.71
2023-03-26T02:51:56.391Z,9.79
2023-03-26T02:55:02.391Z,9.74
2023-03-26T02:58:05.090Z,9.71
2023-03-26T03:01:11.912Z,9.78
2023-03-26T03:04:25.498Z,9.77
2023-03-26T03:07:29.216Z,9.71
2023-03-26T03:10:32.941Z,9.76
2023-03-26T03:13:56.634Z,9.71
2023-03-26T03:17:01.928Z,9.62
2023-03-26T03:20:07.394Z,9.62
2023-03-26T03:23:11.356Z,9.63
2023-03-26T03:26:16.669Z,9.67
2023-03-26T03:29:25.240Z,9.71
2023-03-26T03:32:28.094Z,9.69
2023-03-26T03:35:35.642Z,9.69
2023-03-26T03:38:39.643Z,9.69
2023-03-26T03:41:42.338Z,9.70
2023-03-26T03:44:49.403Z,9.78
2023-03-26T03:48:10.504Z,9.64
2023-03-26T03:51:18.483Z,9.61
2023-03-26T03:54:31.344Z,9.67
2023-03-26T03:58:03.833Z,9.50
2023-03-26T04:01:07.480Z,9.39
2023-03-26T04:04:25.848Z,9.30
2023-03-26T04:07:48.741Z,9.23
2023-03-26T04:11:13.455Z,9.22
2023-03-26T04:14:39.467Z,9.24
2023-03-26T04:17:49.119Z,9.12
2023-03-26T04:20:55.706Z,8.95
2023-03-26T04:24:02.765Z,8.93
2023-03-26T04:27:28.390Z,8.77
2023-03-26T04:30:42.703Z,8.76
2023-03-26T04:34:13.735Z,8.71
2023-03-26T04:37:34.666Z,8.72
2023-03-26T04:40:49.635Z,8.67
2023-03-26T04:44:17.154Z,8.62
2023-03-26T04:47:29.461Z,8.59
2023-03-26T04:50:32.004Z,8.56
2023-03-26T04:53:35.979Z,8.52
2023-03-26T04:56:54.394Z,8.57
2023-03-26T05:00:16.645Z,8.79
2023-03-26T05:03:22.588Z,8.98
2023-03-26T05:06:28.072Z,9.12
2023-03-26T05:09:31.887Z,9.35
2023-03-26T05:12:49.598Z,9.58
2023-03-26T05:15:56.716Z,9.76
2023-03-26T05:19:15.097Z,9.99
2023-03-26T05:22:18.816Z,10.20
2023-03-26T05:25:44.654Z,10.44
2023-03-26T05:28:57.090Z,10.59
2023-03-26T05:32:04.679Z,10.75
2023-03-26T05:35:07.703Z,10.86
2023-03-26T05:38:10.940Z,10.87
2023-03-26T05:41:13.768Z,11.02
2023-03-26T05:44:19.586Z,11.08
2023-03-26T05:47:22.453Z,11.04
2023-03-26T05:50:25.530Z,11.11
2023-03-26T05:53:33.848Z,11.16
2023-03-26T05:56:55.032Z,11.27
2023-03-26T06:00:16.470Z,11.29
2023-03-26T06:03:23.134Z,11.28
2023-03-26T06:06:46.322Z,11.14
2023-03-26T06:09:49.239Z,11.05
2023-03-26T06:12:51.877Z,10.95
2023-03-26T06:15:55.371Z,10.86
2023-03-26T06:19:20.886Z,10.79
2023-03-26T06:22:44.062Z,10.90
2023-03-26T06:25:56.448Z,10.86
2023-03-26T06:29:25.379Z,10.82
2023-03-26T06:32:46.356Z,10.93
2023-03-26T06:35:54.241Z,10.98
2023-03-26T06:38:58.267Z,11.14
2023-03-26T06:42:01.510Z,11.25
2023-03-26T06:45:23.491Z,11.50
2023-03-26T06:48:49.470Z,11.98
2023-03-26T06:52:11.046Z,12.12
2023-03-26T06:55:19.939Z,12.33
2023-03-26T06:58:38.750Z,12.58
2023-03-26T07:02:00.870Z,12.67
2023-03-26T07:05:22.668Z,12.87
2023-03-26T07:08:44.068Z,13.06
2023-03-26T07:12:12.869Z,13.25
2023-03-26T07:15:24.218Z,13.38
2023-03-26T07:18:45.528Z,13.55
2023-03-26T07:21:54.231Z,13.62
2023-03-26T07:25:20.608Z,13.70
2023-03-26T07:29:04.007Z,13.68
2023-03-26T07:32:38.422Z,13.52
2023-03-26T07:36:08.466Z,13.17
2023-03-26T07:39:42.392Z,13.08
2023-03-26T07:43:01.975Z,13.12
2023-03-26T07:46:29.472Z,13.65
2023-03-26T07:49:58.039Z,14.38
2023-03-26T07:53:20.876Z,14.49
2023-03-26T07:56:41.419Z,14.72
2023-03-26T08:00:14.315Z,14.89
2023-03-26T08:03:54.765Z,14.99
2023-03-26T08:08:06.694Z,15.79
2023-03-26T08:11:30.202Z,15.74
2023-03-26T08:14:50.277Z,15.81
2023-03-26T08:17:57.228Z,16.23
2023-03-26T08:21:08.114Z,16.11
2023-03-26T08:24:22.956Z,16.39
2023-03-26T08:27:44.191Z,16.40
2023-03-26T08:30:47.230Z,16.34
2023-03-26T08:33:50.249Z,16.45
2023-03-26T08:36:52.798Z,16.54
2023-03-26T08:39:55.810Z,16.55
2023-03-26T08:43:29.085Z,16.60
2023-03-26T08:46:54.136Z,16.68
2023-03-26T08:50:12.585Z,16.61
2023-03-26T08:53:18.805Z,16.77
2023-03-26T08:56:44.725Z,17.28
2023-03-26T09:00:20.155Z,17.52
2023-03-26T09:03:49.238Z,18.55
2023-03-26T09:07:12.411Z,19.52
2023-03-26T09:10:37.413Z,21.01
2023-03-26T09:14:14.047Z,19.80
2023-03-26T09:17:35.167Z,18.55
2023-03-26T09:21:10.948Z,18.52
2023-03-26T09:24:19.197Z,18.71
2023-03-26T09:27:24.565Z,19.18
2023-03-26T09:30:42.989Z,19.95
2023-03-26T09:34:08.623Z,21.57
2023-03-26T09:37:57.499Z,21.51
2023-03-26T09:41:14.204Z,22.04
2023-03-26T09:44:41.039Z,23.31
2023-03-26T09:48:05.713Z,23.92
2023-03-26T09:51:31.273Z,21.77
2023-03-26T09:54:55.309Z,26.80
2023-03-26T09:58:34.846Z,29.80
2023-03-26T10:01:50.888Z,30.50
2023-03-26T10:05:15.632Z,30.06
2023-03-26T10:08:47.604Z,26.23
2023-03-26T10:11:50.722Z,23.58
2023-03-26T10:15:21.331Z,20.97
2023-03-26T10:18:29.997Z,18.75
2023-03-26T10:21:38.811Z,18.27
2023-03-26T10:25:00.555Z,17.70
2023-03-26T10:28:13.523Z,17.25
2023-03-26T10:31:34.914Z,16.67
2023-03-26T10:34:48.420Z,15.74
2023-03-26T10:38:10.328Z,14.56
2023-03-26T10:41:18.637Z,14.38
2023-03-26T10:44:43.405Z,15.17
2023-03-26T10:47:51.978Z,18.47
2023-03-26T10:51:19.570Z,23.22
2023-03-26T10:54:32.628Z,26.22
2023-03-26T10:57:41.568Z,30.04
2023-03-26T11:00:56.222Z,25.63
2023-03-26T11:04:14.698Z,26.16
2023-03-26T11:07:25.580Z,23.28
2023-03-26T11:10:37.781Z,21.66
2023-03-26T11:13:55.349Z,19.72
2023-03-26T11:17:40.900Z,18.02
2023-03-26T11:20:51.046Z,17.58
2023-03-26T11:24:11.849Z,20.95
2023-03-26T11:27:36.414Z,22.06
2023-03-26T11:30:59.879Z,24.93
2023-03-26T11:34:10.409Z,21.58
2023-03-26T11:37:24.403Z,19.63
2023-03-26T11:40:37.008Z,19.19
2023-03-26T11:43:39.926Z,23.03
2023-03-26T11:46:45.887Z,31.53
2023-03-26T11:49:52.526Z,35.22
2023-03-26T11:53:03.392Z,37.95
2023-03-26T11:56:15.147Z,39.54
2023-03-26T11:59:21.778Z,39.10
2023-03-26T12:02:45.808Z,40.82
2023-03-26T12:05:58.330Z,41.49
2023-03-26T12:09:01.558Z,34.23
2023-03-26T12:12:06.279Z,29.61
2023-03-26T12:15:19.236Z,27.42
2023-03-26T12:18:28.052Z,30.53
2023-03-26T12:21:30.738Z,31.75
2023-03-26T12:24:36.097Z,26.41
2023-03-26T12:27:48.585Z,24.35
2023-03-26T12:30:59.098Z,31.40
2023-03-26T12:34:14.017Z,29.91
2023-03-26T12:37:44.611Z,24.82
2023-03-26T12:40:48.091Z,25.78
2023-03-26T12:44:53.798Z,23.60
2023-03-26T12:47:59.506Z,22.28
2023-03-26T12:51:01.972Z,23.92
2023-03-26T12:54:15.590Z,26.37
2023-03-26T12:57:22.756Z,23.03
2023-03-26T13:00:35.145Z,20.81
2023-03-26T13:04:07.215Z,20.36
2023-03-26T13:07:37.876Z,21.21
2023-03-26T13:10:43.226Z,25.62
2023-03-26T13:14:39.821Z,25.88
2023-03-26T13:18:14.898Z,25.32
2023-03-26T13:21:34.652Z,27.63
2023-03-26T13:25:09.792Z,30.07
2023-03-26T13:28:31.663Z,31.74
2023-03-26T13:32:09.378Z,24.57
2023-03-26T13:35:36.942Z,27.47
2023-03-26T13:39:05.126Z,26.75
2023-03-26T13:42:59.195Z,22.93
2023-03-26T13:46:05.707Z,23.00
2023-03-26T13:49:16.692Z,23.91
2023-03-26T13:52:19.718Z,22.18
2023-03-26T13:55:30.439Z,22.75
2023-03-26T13:58:43.263Z,21.48
2023-03-26T14:02:02.299Z,20.42
2023-03-26T14:05:17.556Z,20.08
2023-03-26T14:08:27.974Z,20.05
2023-03-26T14:11:49.038Z,25.33
2023-03-26T14:15:33.395Z,26.70
2023-03-26T14:19:05.026Z,23.80
2023-03-26T14:22:37.549Z,30.88
2023-03-26T14:25:54.641Z,23.51
2023-03-26T14:29:24.523Z,21.77
2023-03-26T14:32:59.263Z,27.97
2023-03-26T14:36:20.063Z,29.67
2023-03-26T14:39:53.445Z,27.07
2023-03-26T14:43:14.873Z,27.32
2023-03-26T14:46:55.452Z,26.86
2023-03-26T14:50:36.259Z,26.54
2023-03-26T14:53:47.620Z,26.64
2023-03-26T14:57:13.046Z,23.56
2023-03-26T15:00:49.755Z,24.99
2023-03-26T15:04:11.463Z,21.78
2023-03-26T15:07:26.110Z,21.55
2023-03-26T15:10:57.076Z,21.33
2023-03-26T15:14:24.420Z,20.41
2023-03-26T15:18:09.360Z,20.41
2023-03-26T15:21:37.756Z,19.85
2023-03-26T15:25:20.888Z,19.69
2023-03-26T15:28:51.471Z,19.41
2023-03-26T15:32:03.566Z,19.21
2023-03-26T15:35:21.630Z,19.17
2023-03-26T15:38:46.861Z,18.73
2023-03-26T15:42:18.451Z,18.51
2023-03-26T15:45:48.354Z,18.57
2023-03-26T15:49:12.445Z,18.55
2023-03-26T15:52:40.570Z,18.30
2023-03-26T15:56:08.336Z,18.12
2023-03-26T15:59:12.239Z,18.12
2023-03-26T16:02:35.208Z,17.97
2023-03-26T16:06:07.806Z,17.76
2023-03-26T16:09:32.739Z,17.58
2023-03-26T16:13:15.311Z,17.38
2023-03-26T16:16:24.684Z,17.21
2023-03-26T16:19:49.822Z,17.05
2023-03-26T16:23:01.886Z,16.96
2023-03-26T16:26:06.510Z,16.84
2023-03-26T16:29:22.357Z,16.66
2023-03-26T16:32:31.548Z,16.56
2023-03-26T16:36:02.517Z,16.43
2023-03-26T16:39:06.024Z,16.34
2023-03-26T16:42:31.409Z,16.17
2023-03-26T16:45:46.505Z,16.05
2023-03-26T16:49:03.891Z,15.91
2023-03-26T16:52:36.738Z,15.84
2023-03-26T16:55:47.561Z,15.79
2023-03-26T16:59:07.640Z,15.77
2023-03-26T17:02:21.759Z,15.71
2023-03-26T17:05:42.000Z,15.59
2023-03-26T17:08:57.029Z,15.54
2023-03-26T17:12:15.847Z,15.38
2023-03-26T17:15:34.593Z,15.35
2023-03-26T17:18:54.551Z,15.32
2023-03-26T17:22:14.816Z,15.22
2023-03-26T17:25:33.618Z,15.25
2023-03-26T17:28:56.447Z,15.22
2023-03-26T17:32:15.539Z,15.22
2023-03-26T17:35:38.040Z,15.27
2023-03-26T17:38:44.905Z,15.25
2023-03-26T17:42:21.862Z,15.28
2023-03-26T17:45:32.109Z,15.34
2023-03-26T17:48:39.019Z,15.34
2023-03-26T17:52:36.346Z,15.32
2023-03-26T17:55:44.326Z,15.33
2023-03-26T17:58:53.273Z,15.37
2023-03-26T18:02:03.750Z,15.41
2023-03-26T18:05:13.275Z,15.41
2023-03-26T18:08:55.566Z,15.48
2023-03-26T18:12:26.643Z,15.49
2023-03-26T18:15:48.653Z,15.46
2023-03-26T18:19:00.303Z,15.65
2023-03-26T18:22:07.516Z,15.67
2023-03-26T18:25:32.793Z,15.63
2023-03-26T18:28:42.604Z,15.61
2023-03-26T18:31:49.504Z,15.64
2023-03-26T18:35:01.896Z,15.75
2023-03-26T18:38:06.045Z,15.66
2023-03-26T18:41:22.427Z,15.73
2023-03-26T18:44:26.736Z,15.73
2023-03-26T18:47:31.312Z,15.72
2023-03-26T18:50:40.079Z,15.67
2023-03-26T18:53:50.948Z,15.48
2023-03-26T18:57:16.433Z,15.53
2023-03-26T19:00:28.152Z,15.68
2023-03-26T19:03:40.421Z,15.64
2023-03-26T19:06:45.065Z,15.59
2023-03-26T19:09:56.935Z,15.58
2023-03-26T19:13:04.724Z,15.63
2023-03-26T19:16:36.722Z,15.41
2023-03-26T19:19:43.284Z,15.41
2023-03-26T19:22:49.119Z,15.34
2023-03-26T19:25:58.901Z,15.29
2023-03-26T19:29:03.652Z,15.19
2023-03-26T19:32:49.001Z,15.03
2023-03-26T19:36:21.917Z,15.07
2023-03-26T19:39:37.556Z,15.09
2023-03-26T19:42:45.030Z,15.18
2023-03-26T19:46:00.112Z,15.02
2023-03-26T19:49:06.573Z,15.02
2023-03-26T19:52:22.779Z,14.96
2023-03-26T19:55:28.948Z,14.90
2023-03-26T19:58:33.486Z,14.90
2023-03-26T20:01:37.798Z,14.78
2023-03-26T20:04:42.926Z,14.75
2023-03-26T20:07:47.037Z,14.71
2023-03-26T20:10:57.722Z,14.73
2023-03-26T20:14:02.566Z,14.66
2023-03-26T20:17:22.571Z,14.68
2023-03-26T20:20:27.697Z,14.66
2023-03-26T20:23:31.211Z,14.67
2023-03-26T20:26:38.602Z,14.68
2023-03-26T20:29:43.214Z,14.54
2023-03-26T20:32:47.962Z,14.48
2023-03-26T20:35:55.941Z,14.43
2023-03-26T20:38:59.864Z,14.42
2023-03-26T20:42:03.046Z,14.44
2023-03-26T20:45:18.272Z,14.50
2023-03-26T20:48:22.189Z,14.53
2023-03-26T20:51:28.998Z,14.60
2023-03-26T20:54:32.098Z,14.61
2023-03-26T20:57:35.391Z,14.53
2023-03-26T21:00:39.688Z,14.48
2023-03-26T21:03:42.454Z,14.57
2023-03-26T21:06:45.625Z,14.65
2023-03-26T21:09:48.926Z,14.63
2023-03-26T21:13:00.851Z,14.61
2023-03-26T21:16:04.394Z,14.46
2023-03-26T21:19:09.251Z,14.46
2023-03-26T21:22:11.879Z,14.35
2023-03-26T21:25:25.771Z,14.33
2023-03-26T21:28:41.909Z,14.34
2023-03-26T21:31:46.766Z,14.35
2023-03-26T21:34:58.657Z,14.31
2023-03-26T21:38:04.541Z,14.24
2023-03-26T21:41:07.816Z,14.20
2023-03-26T21:44:11.030Z,14.14
2023-03-26T21:47:14.137Z,14.09
2023-03-26T21:50:20.674Z,13.74
2023-03-26T21:53:24.707Z,13.53
2023-03-26T21:56:33.109Z,13.42
2023-03-26T21:59:53.995Z,13.46
2023-03-26T22:03:23.689Z,13.47
2023-03-26T22:06:37.241Z,13.43
2023-03-26T22:09:39.987Z,13.57
2023-03-26T22:12:42.517Z,13.59
2023-03-26T22:15:46.312Z,13.58
2023-03-26T22:18:49.109Z,13.61
2023-03-26T22:21:51.613Z,13.56
2023-03-26T22:24:54.451Z,13.52
2023-03-26T22:27:57.597Z,13.58
2023-03-26T22:31:07.313Z,13.48
2023-03-26T22:34:09.941Z,13.34
2023-03-26T22:37:13.624Z,13.22
2023-03-26T22:40:18.003Z,13.19
2023-03-26T22:43:20.586Z,13.03
2023-03-26T22:46:23.689Z,13.01
2023-03-26T22:49:27.522Z,13.08
2023-03-26T22:52:30.810Z,13.08
2023-03-26T22:55:33.631Z,12.94
2023-03-26T22:58:37.227Z,12.89
2023-03-26T23:01:40.263Z,12.94
2023-03-26T23:04:44.152Z,12.90
2023-03-26T23:07:47.397Z,12.74
2023-03-26T23:10:50.007Z,12.64
2023-03-26T23:13:52.751Z,12.56
2023-03-26T23:16:55.810Z,12.43
2023-03-26T23:19:58.641Z,12.39
2023-03-26T23:23:01.398Z,12.33
2023-03-26T23:26:04.765Z,12.22
2023-03-26T23:29:07.963Z,12.13
2023-03-26T23:32:23.361Z,12.13
2023-03-26T23:35:27.532Z,12.10
2023-03-26T23:38:43.372Z,12.04
2023-03-26T23:41:47.177Z,11.86
2023-03-26T23:44:49.759Z,11.75
2023-03-26T23:47:52.336Z,11.76
2023-03-26T23:51:04.016Z,11.73
2023-03-26T23:54:08.840Z,11.63
2023-03-26T23:57:11.901Z,11.63
